Terminal Aerodrome Forecast
Issued by NWS Tampa Bay Area, FL

Home | Current Version | Previous Version | Text Only | Print | Product List | Glossary On
Versions: 1 2 3 4 5 6 7 8 9 10 11 12 13
000
FTUS42 KTBW 202300
TAFSRQ
TAF
KSRQ 202335Z 2100/2124 05006KT P6SM SCT250
     FM211400 05011KT P6SM SCT090 BKN250
     FM212200 08009KT P6SM BKN100 BKN250=

USA.gov is the U.S. government's official web portal to all federal, state and local government web resources and services.